createdAt,value
2022-12-22T00:00:23.900Z,12.90
2022-12-22T00:03:09.318Z,12.90
2022-12-22T00:05:54.540Z,12.90
2022-12-22T00:08:39.783Z,12.90
2022-12-22T00:11:30.411Z,12.90
2022-12-22T00:14:16.552Z,12.90
2022-12-22T00:17:02.479Z,12.90
2022-12-22T00:19:48.718Z,12.90
2022-12-22T00:22:40.931Z,12.90
2022-12-22T00:25:32.611Z,12.90
2022-12-22T00:28:17.879Z,13.00
2022-12-22T00:31:05.099Z,12.90
2022-12-22T00:33:50.467Z,13.00
2022-12-22T00:36:37.013Z,13.00
2022-12-22T00:39:29.178Z,13.00
2022-12-22T00:42:14.615Z,13.00
2022-12-22T00:44:59.901Z,13.00
2022-12-22T00:47:49.178Z,13.20
2022-12-22T00:50:35.349Z,13.00
2022-12-22T00:53:22.832Z,12.90
2022-12-22T00:56:08.547Z,13.00
2022-12-22T00:58:54.240Z,12.90
2022-12-22T01:01:39.538Z,12.90
2022-12-22T01:04:28.032Z,12.90
2022-12-22T01:07:13.771Z,12.90
2022-12-22T01:10:08.284Z,12.90
2022-12-22T01:12:58.319Z,13.00
2022-12-22T01:15:45.241Z,13.00
2022-12-22T01:18:31.083Z,13.00
2022-12-22T01:21:16.848Z,13.00
2022-12-22T01:24:03.098Z,13.00
2022-12-22T01:26:49.196Z,13.00
2022-12-22T01:29:34.548Z,13.00
2022-12-22T01:32:19.722Z,13.00
2022-12-22T01:35:05.103Z,13.00
2022-12-22T01:37:50.149Z,13.00
2022-12-22T01:40:40.293Z,13.00
2022-12-22T01:43:43.725Z,13.00
2022-12-22T01:46:52.043Z,13.00
2022-12-22T01:50:00.783Z,13.00
2022-12-22T01:52:52.107Z,13.00
2022-12-22T01:55:42.841Z,13.00
2022-12-22T01:58:42.559Z,13.10
2022-12-22T02:01:27.857Z,13.00
2022-12-22T02:04:13.371Z,13.00
2022-12-22T02:07:03.737Z,13.00
2022-12-22T02:10:00.964Z,13.00
2022-12-22T02:13:09.652Z,13.00
2022-12-22T02:16:17.771Z,13.00
2022-12-22T02:19:41.302Z,13.00
2022-12-22T02:23:01.696Z,13.00
2022-12-22T02:26:02.195Z,13.00
2022-12-22T02:28:51.536Z,13.00
2022-12-22T02:31:38.074Z,12.90
2022-12-22T02:34:23.609Z,12.90
2022-12-22T02:37:35.259Z,12.90
2022-12-22T02:40:40.638Z,12.90
2022-12-22T02:43:49.219Z,12.90
2022-12-22T02:46:52.326Z,12.90
2022-12-22T02:49:55.252Z,13.10
2022-12-22T02:52:50.508Z,12.90
2022-12-22T02:55:36.902Z,12.90
2022-12-22T02:58:22.260Z,12.90
2022-12-22T03:01:08.717Z,12.90
2022-12-22T03:03:54.886Z,12.90
2022-12-22T03:06:40.137Z,13.00
2022-12-22T03:09:25.514Z,12.90
2022-12-22T03:12:10.891Z,12.90
2022-12-22T03:14:55.971Z,12.90
2022-12-22T03:17:41.493Z,12.90
2022-12-22T03:20:27.563Z,12.90
2022-12-22T03:23:13.182Z,12.90
2022-12-22T03:25:54.866Z,12.90
2022-12-22T03:28:26.058Z,12.90
2022-12-22T03:31:05.178Z,12.90
2022-12-22T03:33:32.255Z,12.90
2022-12-22T03:36:00.307Z,12.90
2022-12-22T03:38:27.954Z,12.90
2022-12-22T03:40:55.415Z,12.90
2022-12-22T03:43:41.180Z,12.90
2022-12-22T03:46:31.028Z,12.90
2022-12-22T03:49:10.285Z,12.90
2022-12-22T03:51:49.008Z,12.90
2022-12-22T03:54:22.511Z,12.90
2022-12-22T03:56:50.532Z,12.90
2022-12-22T03:59:18.945Z,12.80
2022-12-22T04:01:52.866Z,12.80
2022-12-22T04:04:25.023Z,12.80
2022-12-22T04:06:52.841Z,12.80
2022-12-22T04:09:19.968Z,12.80
2022-12-22T04:12:05.517Z,12.80
2022-12-22T04:14:34.728Z,12.80
2022-12-22T04:17:04.034Z,12.80
2022-12-22T04:19:31.932Z,12.80
2022-12-22T04:21:58.915Z,12.80
2022-12-22T04:24:25.675Z,12.80
2022-12-22T04:26:52.677Z,12.80
2022-12-22T04:29:19.420Z,12.80
2022-12-22T04:31:46.187Z,12.80
2022-12-22T04:34:12.989Z,12.80
2022-12-22T04:36:39.822Z,12.80
2022-12-22T04:39:06.580Z,12.80
2022-12-22T04:41:33.330Z,12.80
2022-12-22T04:44:00.115Z,12.80
2022-12-22T04:46:26.847Z,12.80
2022-12-22T04:48:59.550Z,12.90
2022-12-22T04:51:28.201Z,12.80
2022-12-22T04:53:54.931Z,12.90
2022-12-22T04:56:21.833Z,12.90
2022-12-22T04:58:48.581Z,12.90
2022-12-22T05:01:18.721Z,12.90
2022-12-22T05:03:46.217Z,12.90
2022-12-22T05:06:14.128Z,12.80
2022-12-22T05:08:41.782Z,12.90
2022-12-22T05:11:08.726Z,12.90
2022-12-22T05:13:35.495Z,12.80
2022-12-22T05:16:06.539Z,12.80
2022-12-22T05:18:35.466Z,12.80
2022-12-22T05:21:09.241Z,12.80
2022-12-22T05:23:35.972Z,12.80
2022-12-22T05:26:03.399Z,12.80
2022-12-22T05:28:30.176Z,12.80
2022-12-22T05:30:56.946Z,12.80
2022-12-22T05:33:23.821Z,12.90
2022-12-22T05:35:50.528Z,12.90
2022-12-22T05:38:17.301Z,13.00
2022-12-22T05:40:44.023Z,12.90
2022-12-22T05:43:10.839Z,12.90
2022-12-22T05:45:37.757Z,12.90
2022-12-22T05:48:04.919Z,12.90
2022-12-22T05:50:32.642Z,12.90
2022-12-22T05:52:59.743Z,12.90
2022-12-22T05:55:26.500Z,12.90
2022-12-22T05:57:53.289Z,12.90
2022-12-22T06:00:20.892Z,12.90
2022-12-22T06:02:47.745Z,12.90
2022-12-22T06:05:15.456Z,12.90
2022-12-22T06:07:42.604Z,12.90
2022-12-22T06:10:12.769Z,12.90
2022-12-22T06:12:40.908Z,12.90
2022-12-22T06:15:11.404Z,12.90
2022-12-22T06:17:44.441Z,12.90
2022-12-22T06:20:12.825Z,12.90
2022-12-22T06:22:39.573Z,12.90
2022-12-22T06:25:06.950Z,12.90
2022-12-22T06:27:33.784Z,12.90
2022-12-22T06:30:00.542Z,12.80
2022-12-22T06:32:27.296Z,12.80
2022-12-22T06:34:54.083Z,12.80
2022-12-22T06:37:20.794Z,12.90
2022-12-22T06:39:47.589Z,12.90
2022-12-22T06:42:32.620Z,12.90
2022-12-22T06:44:59.417Z,12.90
2022-12-22T06:47:26.167Z,12.90
2022-12-22T06:49:52.953Z,12.90
2022-12-22T06:52:19.668Z,12.90
2022-12-22T06:54:46.417Z,12.80
2022-12-22T06:57:13.267Z,12.80
2022-12-22T06:59:40.053Z,12.80
2022-12-22T07:02:07.277Z,12.90
2022-12-22T07:04:34.059Z,12.80
2022-12-22T07:07:00.839Z,12.80
2022-12-22T07:09:27.611Z,12.90
2022-12-22T07:11:54.414Z,12.90
2022-12-22T07:14:21.399Z,12.80
2022-12-22T07:16:48.249Z,12.80
2022-12-22T07:19:15.122Z,12.80
2022-12-22T07:21:41.847Z,12.80
2022-12-22T07:24:09.033Z,12.80
2022-12-22T07:26:35.733Z,12.70
2022-12-22T07:29:02.459Z,12.80
2022-12-22T07:31:29.182Z,12.70
2022-12-22T07:33:55.937Z,12.70
2022-12-22T07:36:22.686Z,12.70
2022-12-22T07:38:51.860Z,12.70
2022-12-22T07:41:38.788Z,12.70
2022-12-22T07:44:05.776Z,12.70
2022-12-22T07:46:36.977Z,12.70
2022-12-22T07:49:23.781Z,13.00
2022-12-22T07:51:51.597Z,12.70
2022-12-22T07:54:18.694Z,12.70
2022-12-22T07:56:46.977Z,12.80
2022-12-22T07:59:14.537Z,12.70
2022-12-22T08:01:41.897Z,12.70
2022-12-22T08:04:10.150Z,12.70
2022-12-22T08:06:37.612Z,12.70
2022-12-22T08:09:06.554Z,12.70
2022-12-22T08:11:34.212Z,12.70
2022-12-22T08:14:02.136Z,12.70
2022-12-22T08:16:29.554Z,12.70
2022-12-22T08:18:56.993Z,12.70
2022-12-22T08:21:24.024Z,12.70
2022-12-22T08:23:51.252Z,12.70
2022-12-22T08:26:38.846Z,12.70
2022-12-22T08:29:16.043Z,12.70
2022-12-22T08:31:43.860Z,12.70
2022-12-22T08:34:15.562Z,12.70
2022-12-22T08:36:49.052Z,12.80
2022-12-22T08:39:18.974Z,12.70
2022-12-22T08:41:51.751Z,12.70
2022-12-22T08:44:28.626Z,12.70
2022-12-22T08:46:59.574Z,12.70
2022-12-22T08:49:26.852Z,12.70
2022-12-22T08:51:54.609Z,12.70
2022-12-22T08:54:21.597Z,12.70
2022-12-22T08:56:49.689Z,12.70
2022-12-22T08:59:16.918Z,12.70
2022-12-22T09:01:48.132Z,12.70
2022-12-22T09:04:19.320Z,12.70
2022-12-22T09:06:46.280Z,12.70
2022-12-22T09:09:15.117Z,12.70
2022-12-22T09:11:42.568Z,12.70
2022-12-22T09:14:11.378Z,12.70
2022-12-22T09:16:39.614Z,12.70
2022-12-22T09:19:07.695Z,12.70
2022-12-22T09:21:35.448Z,12.70
2022-12-22T09:24:03.278Z,12.70
2022-12-22T09:26:30.356Z,13.00
2022-12-22T09:28:58.021Z,12.70
2022-12-22T09:31:26.451Z,12.70
2022-12-22T09:33:53.699Z,12.70
2022-12-22T09:36:24.763Z,12.80
2022-12-22T09:38:51.756Z,12.80
2022-12-22T09:41:25.764Z,12.80
2022-12-22T09:43:52.544Z,12.80
2022-12-22T09:46:26.948Z,12.90
2022-12-22T09:48:54.897Z,12.90
2022-12-22T09:51:26.997Z,13.00
2022-12-22T09:53:59.612Z,13.10
2022-12-22T09:56:29.141Z,13.20
2022-12-22T09:58:56.588Z,13.20
2022-12-22T10:01:46.508Z,13.30
2022-12-22T10:04:54.432Z,13.30
2022-12-22T10:07:34.403Z,13.40
2022-12-22T10:10:16.936Z,13.50
2022-12-22T10:12:43.626Z,13.60
2022-12-22T10:15:15.607Z,13.80
2022-12-22T10:17:45.297Z,13.90
2022-12-22T10:20:26.238Z,14.20
2022-12-22T10:23:00.181Z,14.30
2022-12-22T10:28:36.589Z,14.50
2022-12-22T10:31:25.841Z,14.50
2022-12-22T10:33:57.816Z,14.50
2022-12-22T10:36:32.381Z,14.40
2022-12-22T10:39:09.784Z,14.40
2022-12-22T10:41:49.833Z,14.30
2022-12-22T10:44:16.523Z,14.50
2022-12-22T10:46:51.301Z,14.30
2022-12-22T10:52:30.439Z,14.40
2022-12-22T10:55:22.386Z,14.50
2022-12-22T10:57:50.428Z,14.60
2022-12-22T11:00:30.080Z,14.70
2022-12-22T11:03:00.938Z,14.70
2022-12-22T11:05:28.829Z,14.80
2022-12-22T11:07:56.349Z,14.80
2022-12-22T11:10:27.667Z,14.90
2022-12-22T11:13:21.743Z,14.90
2022-12-22T11:16:17.884Z,14.80
2022-12-22T11:19:03.619Z,14.80
2022-12-22T11:22:02.904Z,14.90
2022-12-22T11:25:21.863Z,14.90
2022-12-22T11:28:36.068Z,15.00
2022-12-22T11:31:59.078Z,15.00
2022-12-22T11:35:09.295Z,15.00
2022-12-22T11:37:49.466Z,14.90
2022-12-22T11:40:52.992Z,14.80
2022-12-22T11:43:27.614Z,14.70
2022-12-22T11:46:14.297Z,14.50
2022-12-22T11:49:24.133Z,14.50
2022-12-22T11:52:37.722Z,14.40
2022-12-22T11:55:52.686Z,14.30
2022-12-22T11:58:59.272Z,14.30
2022-12-22T12:02:08.823Z,14.30
2022-12-22T12:04:54.343Z,14.40
2022-12-22T12:07:41.204Z,14.50
2022-12-22T12:10:44.753Z,14.80
2022-12-22T12:14:07.515Z,14.70
2022-12-22T12:17:06.030Z,14.70
2022-12-22T12:20:12.964Z,14.70
2022-12-22T12:23:31.524Z,14.70
2022-12-22T12:26:21.508Z,14.70
2022-12-22T12:29:03.597Z,14.60
2022-12-22T12:31:43.809Z,14.60
2022-12-22T12:34:15.851Z,14.50
2022-12-22T12:37:07.964Z,14.50
2022-12-22T12:40:15.345Z,14.50
2022-12-22T12:42:46.760Z,14.50
2022-12-22T12:45:45.586Z,14.50
2022-12-22T12:48:21.218Z,14.50
2022-12-22T12:50:58.194Z,14.50
2022-12-22T12:53:27.881Z,14.40
2022-12-22T12:56:04.865Z,14.50
2022-12-22T12:58:37.660Z,14.50
2022-12-22T13:01:12.516Z,14.50
2022-12-22T13:06:52.082Z,14.50
2022-12-22T13:09:49.743Z,14.40
2022-12-22T13:12:39.866Z,14.40
2022-12-22T13:15:34.855Z,14.40
2022-12-22T13:18:09.622Z,14.30
2022-12-22T13:20:37.802Z,14.30
2022-12-22T13:23:15.120Z,14.30
2022-12-22T13:25:59.128Z,14.20
2022-12-22T13:28:27.884Z,14.20
2022-12-22T13:31:07.994Z,14.20
2022-12-22T13:33:40.084Z,14.20
2022-12-22T13:36:18.445Z,14.20
2022-12-22T13:38:45.808Z,14.10
2022-12-22T13:41:26.852Z,14.10
2022-12-22T13:44:04.054Z,14.00
2022-12-22T13:46:36.011Z,13.90
2022-12-22T13:49:04.881Z,13.90
2022-12-22T13:51:37.376Z,13.80
2022-12-22T13:54:24.745Z,13.80
2022-12-22T13:56:56.595Z,13.70
2022-12-22T13:59:26.062Z,13.70
2022-12-22T14:02:18.623Z,13.60
2022-12-22T14:05:08.751Z,13.50
2022-12-22T14:07:35.867Z,13.50
2022-12-22T14:10:02.730Z,13.40
2022-12-22T14:12:44.466Z,13.40
2022-12-22T14:15:18.918Z,13.40
2022-12-22T14:17:52.166Z,13.30
2022-12-22T14:20:36.298Z,13.30
2022-12-22T14:23:18.725Z,13.20
2022-12-22T14:25:48.370Z,13.20
2022-12-22T14:28:43.149Z,13.10
2022-12-22T14:31:13.379Z,13.10
2022-12-22T14:33:56.612Z,13.00
2022-12-22T14:36:27.352Z,13.00
2022-12-22T14:39:00.053Z,12.90
2022-12-22T14:41:51.592Z,12.90
2022-12-22T14:44:20.645Z,12.80
2022-12-22T14:47:16.081Z,12.90
2022-12-22T14:49:52.020Z,12.80
2022-12-22T14:52:37.523Z,12.80
2022-12-22T14:55:20.711Z,12.80
2022-12-22T14:58:10.045Z,12.80
2022-12-22T15:00:45.075Z,12.80
2022-12-22T15:03:34.997Z,12.80
2022-12-22T15:06:27.348Z,12.80
2022-12-22T15:09:14.338Z,12.80
2022-12-22T15:11:52.957Z,12.80
2022-12-22T15:14:24.730Z,12.70
2022-12-22T15:16:57.296Z,12.70
2022-12-22T15:19:24.360Z,12.70
2022-12-22T15:21:51.780Z,12.70
2022-12-22T15:24:19.348Z,12.70
2022-12-22T15:26:46.931Z,12.70
2022-12-22T15:29:14.322Z,12.70
2022-12-22T15:31:42.942Z,12.70
2022-12-22T15:34:31.381Z,12.70
2022-12-22T15:36:58.324Z,12.70
2022-12-22T15:39:25.062Z,12.70
2022-12-22T15:41:51.868Z,12.70
2022-12-22T15:44:18.865Z,12.60
2022-12-22T15:46:55.263Z,12.60
2022-12-22T15:49:27.004Z,12.60
2022-12-22T15:51:58.987Z,12.60
2022-12-22T15:54:27.965Z,12.60
2022-12-22T15:56:55.786Z,12.60
2022-12-22T15:59:28.699Z,12.60
2022-12-22T16:02:02.008Z,12.60
2022-12-22T16:04:29.685Z,12.50
2022-12-22T16:06:58.496Z,12.50
2022-12-22T16:09:32.671Z,12.50
2022-12-22T16:11:59.396Z,12.50
2022-12-22T16:14:26.193Z,12.50
2022-12-22T16:16:52.978Z,12.50
2022-12-22T16:19:19.841Z,12.50
2022-12-22T16:21:51.972Z,12.60
2022-12-22T16:24:35.391Z,12.50
2022-12-22T16:27:03.022Z,12.50
2022-12-22T16:29:30.190Z,12.50
2022-12-22T16:32:17.581Z,12.50
2022-12-22T16:34:44.945Z,12.50
2022-12-22T16:37:11.687Z,12.50
2022-12-22T16:39:38.453Z,12.50
2022-12-22T16:42:06.549Z,12.50
2022-12-22T16:47:26.956Z,12.50
2022-12-22T16:49:53.816Z,12.50
2022-12-22T16:52:28.325Z,12.50
2022-12-22T16:54:55.204Z,12.60
2022-12-22T16:57:21.962Z,12.50
2022-12-22T16:59:48.685Z,12.60
2022-12-22T17:02:30.859Z,12.60
2022-12-22T17:05:01.235Z,12.60
2022-12-22T17:07:33.415Z,12.60
2022-12-22T17:10:02.130Z,12.70
2022-12-22T17:12:34.392Z,12.60
2022-12-22T17:15:02.256Z,12.60
2022-12-22T17:17:35.505Z,12.70
2022-12-22T17:20:04.287Z,12.60
2022-12-22T17:22:34.186Z,12.70
2022-12-22T17:25:05.503Z,12.70
2022-12-22T17:27:34.712Z,12.70
2022-12-22T17:30:03.920Z,12.70
2022-12-22T17:32:30.642Z,12.70
2022-12-22T17:34:57.702Z,12.70
2022-12-22T17:37:24.452Z,12.70
2022-12-22T17:39:58.932Z,12.70
2022-12-22T17:42:26.117Z,12.70
2022-12-22T17:44:52.953Z,12.80
2022-12-22T17:47:26.921Z,12.80
2022-12-22T17:49:58.612Z,12.80
2022-12-22T17:52:27.842Z,12.80
2022-12-22T17:54:55.173Z,12.80
2022-12-22T17:57:29.599Z,12.80
2022-12-22T17:59:56.451Z,12.90
2022-12-22T18:02:25.676Z,12.90
2022-12-22T18:04:53.453Z,12.90
2022-12-22T18:07:23.897Z,12.90
2022-12-22T18:09:58.936Z,12.90
2022-12-22T18:12:25.952Z,12.90
2022-12-22T18:14:53.116Z,12.90
2022-12-22T18:17:34.918Z,12.90
2022-12-22T18:20:02.843Z,12.90
2022-12-22T18:22:29.906Z,12.90
2022-12-22T18:24:57.637Z,13.00
2022-12-22T18:27:24.761Z,13.00
2022-12-22T18:29:51.618Z,13.00
2022-12-22T18:32:26.409Z,13.00
2022-12-22T18:34:54.632Z,13.00
2022-12-22T18:37:21.522Z,13.00
2022-12-22T18:39:48.373Z,13.00
2022-12-22T18:42:23.547Z,13.00
2022-12-22T18:44:51.575Z,13.00
2022-12-22T18:47:18.928Z,13.00
2022-12-22T18:49:46.387Z,12.90
2022-12-22T18:52:19.226Z,12.90
2022-12-22T18:54:46.843Z,13.00
2022-12-22T18:57:19.425Z,13.00
2022-12-22T18:59:48.091Z,12.90
2022-12-22T19:02:26.492Z,13.00
2022-12-22T19:04:55.114Z,13.00
2022-12-22T19:07:25.464Z,13.00
2022-12-22T19:09:52.604Z,13.00
2022-12-22T19:12:23.101Z,13.10
2022-12-22T19:14:57.138Z,13.00
2022-12-22T19:17:28.599Z,13.00
2022-12-22T19:19:56.568Z,13.00
2022-12-22T19:22:23.570Z,13.00
2022-12-22T19:24:51.471Z,13.00
2022-12-22T19:27:27.203Z,13.00
2022-12-22T19:30:03.501Z,13.00
2022-12-22T19:32:41.723Z,13.00
2022-12-22T19:35:24.490Z,13.00
2022-12-22T19:37:53.394Z,13.10
2022-12-22T19:40:27.541Z,13.10
2022-12-22T19:42:57.322Z,13.10
2022-12-22T19:45:36.763Z,13.10
2022-12-22T19:48:16.186Z,13.10
2022-12-22T19:50:42.903Z,13.10
2022-12-22T19:53:11.455Z,13.10
2022-12-22T19:55:44.015Z,13.10
2022-12-22T19:58:25.613Z,13.10
2022-12-22T20:00:53.205Z,13.10
2022-12-22T20:03:26.113Z,13.10
2022-12-22T20:05:53.171Z,13.10
2022-12-22T20:08:19.964Z,13.10
2022-12-22T20:10:49.565Z,13.10
2022-12-22T20:13:21.695Z,13.10
2022-12-22T20:15:49.421Z,13.10
2022-12-22T20:18:30.091Z,13.10
2022-12-22T20:20:59.770Z,13.20
2022-12-22T20:23:30.047Z,13.00
2022-12-22T20:26:08.270Z,13.00
2022-12-22T20:28:39.592Z,13.00
2022-12-22T20:31:11.885Z,13.00
2022-12-22T20:33:38.751Z,13.00
2022-12-22T20:36:20.682Z,12.90
2022-12-22T20:38:52.175Z,12.90
2022-12-22T20:41:20.472Z,12.90
2022-12-22T20:43:47.675Z,12.80
2022-12-22T20:46:22.868Z,12.80
2022-12-22T20:49:01.506Z,12.90
2022-12-22T20:51:32.654Z,12.80
2022-12-22T20:54:00.388Z,12.80
2022-12-22T20:56:38.044Z,12.70
2022-12-22T20:59:22.159Z,12.70
2022-12-22T21:01:52.311Z,12.70
2022-12-22T21:04:19.377Z,12.70
2022-12-22T21:06:51.842Z,12.70
2022-12-22T21:09:19.469Z,12.70
2022-12-22T21:11:46.451Z,12.70
2022-12-22T21:14:14.292Z,12.70
2022-12-22T21:16:42.447Z,12.60
2022-12-22T21:19:17.121Z,12.60
2022-12-22T21:21:44.100Z,12.60
2022-12-22T21:24:10.886Z,12.60
2022-12-22T21:26:42.847Z,12.60
2022-12-22T21:29:20.044Z,12.60
2022-12-22T21:31:46.733Z,12.60
2022-12-22T21:34:13.540Z,12.60
2022-12-22T21:36:43.933Z,12.60
2022-12-22T21:39:37.563Z,12.60
2022-12-22T21:42:05.214Z,12.60
2022-12-22T21:44:35.114Z,12.60
2022-12-22T21:47:02.288Z,12.60
2022-12-22T21:49:32.199Z,12.60
2022-12-22T21:51:59.247Z,12.60
2022-12-22T21:54:27.678Z,12.60
2022-12-22T21:56:54.947Z,12.60
2022-12-22T21:59:26.446Z,12.60
2022-12-22T22:01:53.785Z,12.60
2022-12-22T22:04:22.157Z,12.60
2022-12-22T22:06:49.280Z,12.60
2022-12-22T22:09:16.070Z,12.60
2022-12-22T22:12:01.592Z,12.50
2022-12-22T22:14:28.383Z,12.50
2022-12-22T22:16:55.196Z,12.50
2022-12-22T22:19:22.053Z,12.50
2022-12-22T22:21:48.892Z,12.50
2022-12-22T22:24:15.718Z,12.50
2022-12-22T22:26:46.193Z,12.60
2022-12-22T22:29:13.086Z,12.60
2022-12-22T22:31:41.506Z,12.50
2022-12-22T22:34:08.994Z,12.50
2022-12-22T22:36:35.801Z,12.50
2022-12-22T22:39:02.894Z,12.50
2022-12-22T22:41:32.336Z,12.50
2022-12-22T22:44:02.036Z,12.60
2022-12-22T22:46:28.837Z,12.60
2022-12-22T22:48:58.433Z,12.50
2022-12-22T22:51:25.542Z,12.60
2022-12-22T22:53:52.248Z,12.60
2022-12-22T22:56:18.994Z,12.60
2022-12-22T22:58:45.727Z,12.60
2022-12-22T23:01:12.465Z,12.60
2022-12-22T23:03:39.382Z,12.60
2022-12-22T23:06:10.754Z,12.60
2022-12-22T23:08:38.073Z,12.60
2022-12-22T23:11:06.173Z,12.60
2022-12-22T23:13:33.065Z,12.60
2022-12-22T23:16:03.473Z,12.60
2022-12-22T23:18:32.060Z,12.60
2022-12-22T23:21:01.404Z,12.60
2022-12-22T23:23:30.041Z,12.60
2022-12-22T23:25:56.847Z,12.60
2022-12-22T23:28:23.817Z,12.60
2022-12-22T23:30:52.814Z,12.60
2022-12-22T23:33:20.630Z,12.60
2022-12-22T23:35:49.897Z,12.60
2022-12-22T23:38:20.816Z,12.60
2022-12-22T23:40:53.498Z,12.60
2022-12-22T23:43:21.444Z,12.60
2022-12-22T23:45:48.203Z,12.60
2022-12-22T23:48:14.975Z,12.60
2022-12-22T23:50:45.184Z,12.60
2022-12-22T23:53:11.921Z,12.60
2022-12-22T23:55:47.036Z,12.60
2022-12-22T23:58:15.101Z,12.50
